createdAt,value
2022-11-16T00:01:03.192Z,9.20
2022-11-16T00:03:32.949Z,9.20
2022-11-16T00:06:08.347Z,9.20
2022-11-16T00:08:36.175Z,9.50
2022-11-16T00:11:09.398Z,9.20
2022-11-16T00:13:36.334Z,9.20
2022-11-16T00:16:03.174Z,9.80
2022-11-16T00:18:30.284Z,9.20
2022-11-16T00:20:57.417Z,10.10
2022-11-16T00:23:24.310Z,9.30
2022-11-16T00:25:51.153Z,9.40
2022-11-16T00:28:17.941Z,10.30
2022-11-16T00:30:47.481Z,9.40
2022-11-16T00:33:17.517Z,9.60
2022-11-16T00:35:44.709Z,8.60
2022-11-16T00:38:11.751Z,10.40
2022-11-16T00:40:47.682Z,9.60
2022-11-16T00:43:14.728Z,10.10
2022-11-16T00:45:42.712Z,9.40
2022-11-16T00:48:12.185Z,9.50
2022-11-16T00:50:39.171Z,9.70
2022-11-16T00:53:06.375Z,10.10
2022-11-16T00:55:34.777Z,9.00
2022-11-16T00:58:01.435Z,9.40
2022-11-16T01:00:28.199Z,8.80
2022-11-16T01:02:55.208Z,9.40
2022-11-16T01:05:22.152Z,9.00
2022-11-16T01:07:49.079Z,9.10
2022-11-16T01:10:16.545Z,8.90
2022-11-16T01:12:43.820Z,9.10
2022-11-16T01:15:10.551Z,9.50
2022-11-16T01:17:38.002Z,9.30
2022-11-16T01:22:48.169Z,8.60
2022-11-16T01:25:15.434Z,8.90
2022-11-16T01:27:42.351Z,8.30
2022-11-16T01:30:09.700Z,8.60
2022-11-16T01:32:36.447Z,8.60
2022-11-16T01:35:03.560Z,8.60
2022-11-16T01:37:30.596Z,8.40
2022-11-16T01:39:57.385Z,8.40
2022-11-16T01:42:25.175Z,8.20
2022-11-16T01:44:59.406Z,8.40
2022-11-16T01:47:26.218Z,8.40
2022-11-16T01:49:58.171Z,8.30
2022-11-16T01:52:26.361Z,8.30
2022-11-16T01:54:53.528Z,8.30
2022-11-16T01:57:24.534Z,8.30
2022-11-16T01:59:53.013Z,8.10
2022-11-16T02:02:19.793Z,8.40
2022-11-16T02:04:47.797Z,8.40
2022-11-16T02:07:20.867Z,7.20
2022-11-16T02:10:06.295Z,8.50
2022-11-16T02:12:36.175Z,8.50
2022-11-16T02:15:15.784Z,8.50
2022-11-16T02:17:42.597Z,7.80
2022-11-16T02:20:18.569Z,9.30
2022-11-16T02:23:03.820Z,8.70
2022-11-16T02:25:48.985Z,9.10
2022-11-16T02:28:48.414Z,8.70
2022-11-16T02:31:20.205Z,8.70
2022-11-16T02:33:47.073Z,8.80
2022-11-16T02:36:14.812Z,8.90
2022-11-16T02:38:43.049Z,8.70
2022-11-16T02:41:10.800Z,9.00
2022-11-16T02:43:48.510Z,9.10
2022-11-16T02:46:22.423Z,9.10
2022-11-16T02:48:50.595Z,9.10
2022-11-16T02:51:17.420Z,9.50
2022-11-16T02:53:59.336Z,9.10
2022-11-16T02:56:25.993Z,9.10
2022-11-16T02:58:52.812Z,9.10
2022-11-16T03:01:22.351Z,8.50
2022-11-16T03:03:57.494Z,9.40
2022-11-16T03:06:31.396Z,9.00
2022-11-16T03:09:00.582Z,8.90
2022-11-16T03:11:45.907Z,9.10
2022-11-16T03:14:15.024Z,9.00
2022-11-16T03:16:43.142Z,9.00
2022-11-16T03:19:10.929Z,8.50
2022-11-16T03:21:39.978Z,10.50
2022-11-16T03:24:06.939Z,8.60
2022-11-16T03:26:35.503Z,8.60
2022-11-16T03:29:22.404Z,9.10
2022-11-16T03:31:50.124Z,8.60
2022-11-16T03:34:17.568Z,9.00
2022-11-16T03:36:44.958Z,8.20
2022-11-16T03:39:21.459Z,8.60
2022-11-16T03:41:48.196Z,8.60
2022-11-16T03:44:14.961Z,9.30
2022-11-16T03:46:42.235Z,8.70
2022-11-16T03:49:08.933Z,9.40
2022-11-16T03:51:35.877Z,8.80
2022-11-16T03:54:02.618Z,8.80
2022-11-16T03:56:29.369Z,8.80
2022-11-16T03:58:57.376Z,8.30
2022-11-16T04:01:24.174Z,8.90
2022-11-16T04:03:50.933Z,8.40
2022-11-16T04:06:36.563Z,9.20
2022-11-16T04:09:22.028Z,9.00
2022-11-16T04:12:07.458Z,9.00
2022-11-16T04:14:52.974Z,9.20
2022-11-16T04:17:38.469Z,9.00
2022-11-16T04:20:24.058Z,9.00
2022-11-16T04:23:13.588Z,9.20
2022-11-16T04:25:40.414Z,9.00
2022-11-16T04:28:13.268Z,9.50
2022-11-16T04:31:02.362Z,8.90
2022-11-16T04:34:00.190Z,8.80
2022-11-16T04:36:49.222Z,8.70
2022-11-16T04:39:18.777Z,9.10
2022-11-16T04:42:04.139Z,8.00
2022-11-16T04:44:51.049Z,9.30
2022-11-16T04:47:17.766Z,8.50
2022-11-16T04:49:44.629Z,8.90
2022-11-16T04:52:11.528Z,8.80
2022-11-16T04:54:38.326Z,9.00
2022-11-16T04:57:05.258Z,8.80
2022-11-16T04:59:32.305Z,8.80
2022-11-16T05:02:13.436Z,8.80
2022-11-16T05:04:40.742Z,8.80
2022-11-16T05:07:11.181Z,8.70
2022-11-16T05:09:42.885Z,8.70
2022-11-16T05:12:15.073Z,8.60
2022-11-16T05:14:42.400Z,9.20
2022-11-16T05:17:14.621Z,9.80
2022-11-16T05:20:00.255Z,9.40
2022-11-16T05:22:27.115Z,8.50
2022-11-16T05:24:54.056Z,9.20
2022-11-16T05:27:21.255Z,8.50
2022-11-16T05:29:50.875Z,8.90
2022-11-16T05:32:18.255Z,8.40
2022-11-16T05:34:46.476Z,8.60
2022-11-16T05:37:13.658Z,7.80
2022-11-16T05:39:40.600Z,8.30
2022-11-16T05:42:11.448Z,8.40
2022-11-16T05:44:41.139Z,8.40
2022-11-16T05:47:07.955Z,8.30
2022-11-16T05:49:35.220Z,7.90
2022-11-16T05:52:03.590Z,7.70
2022-11-16T05:54:35.872Z,8.40
2022-11-16T05:57:03.640Z,8.70
2022-11-16T05:59:33.380Z,8.20
2022-11-16T06:02:06.846Z,8.30
2022-11-16T06:04:36.239Z,9.10
2022-11-16T06:07:03.631Z,8.40
2022-11-16T06:09:45.679Z,9.60
2022-11-16T06:12:12.431Z,8.20
2022-11-16T06:14:39.136Z,8.50
2022-11-16T06:17:08.773Z,8.50
2022-11-16T06:19:35.498Z,8.50
2022-11-16T06:22:02.337Z,8.50
2022-11-16T06:24:29.178Z,7.70
2022-11-16T06:26:55.921Z,8.60
2022-11-16T06:29:22.768Z,8.60
2022-11-16T06:31:49.632Z,8.70
2022-11-16T06:34:16.363Z,9.10
2022-11-16T06:36:46.190Z,8.70
2022-11-16T06:39:13.077Z,8.60
2022-11-16T06:41:41.671Z,8.70
2022-11-16T06:44:08.535Z,8.70
2022-11-16T06:46:35.713Z,9.10
2022-11-16T06:49:10.252Z,9.60
2022-11-16T06:51:44.491Z,8.90
2022-11-16T06:54:16.109Z,9.20
2022-11-16T06:56:43.031Z,8.80
2022-11-16T06:59:09.905Z,10.00
2022-11-16T07:01:43.451Z,8.80
2022-11-16T07:04:19.564Z,8.60
2022-11-16T07:06:46.686Z,8.80
2022-11-16T07:09:13.839Z,8.90
2022-11-16T07:11:40.666Z,8.90
2022-11-16T07:14:07.515Z,8.80
2022-11-16T07:16:35.786Z,8.90
2022-11-16T07:19:03.040Z,8.90
2022-11-16T07:21:29.943Z,9.20
2022-11-16T07:23:56.695Z,8.90
2022-11-16T07:26:23.473Z,8.80
2022-11-16T07:28:50.199Z,9.50
2022-11-16T07:31:16.965Z,8.90
2022-11-16T07:33:43.690Z,9.10
2022-11-16T07:36:10.983Z,8.80
2022-11-16T07:38:38.094Z,9.40
2022-11-16T07:41:10.921Z,7.60
2022-11-16T07:43:52.787Z,8.80
2022-11-16T07:46:45.493Z,9.00
2022-11-16T07:49:11.288Z,8.80
2022-11-16T07:51:38.397Z,8.90
2022-11-16T07:54:06.576Z,8.90
2022-11-16T07:56:33.553Z,8.90
2022-11-16T07:59:00.661Z,9.60
2022-11-16T08:01:27.479Z,10.30
2022-11-16T08:03:54.438Z,8.90
2022-11-16T08:06:22.788Z,9.10
2022-11-16T08:08:53.716Z,9.00
2022-11-16T08:11:23.898Z,9.50
2022-11-16T08:13:50.660Z,9.30
2022-11-16T08:16:18.308Z,9.00
2022-11-16T08:18:45.142Z,8.90
2022-11-16T08:21:12.291Z,8.80
2022-11-16T08:23:40.372Z,9.00
2022-11-16T08:26:09.396Z,9.00
2022-11-16T08:28:36.599Z,9.50
2022-11-16T08:31:13.813Z,9.60
2022-11-16T08:33:40.471Z,9.00
2022-11-16T08:36:14.192Z,9.20
2022-11-16T08:38:41.196Z,8.90
2022-11-16T08:41:08.108Z,9.90
2022-11-16T08:43:35.967Z,9.30
2022-11-16T08:46:03.312Z,9.20
2022-11-16T08:48:30.676Z,9.30
2022-11-16T08:51:20.864Z,9.10
2022-11-16T08:53:50.286Z,9.30
2022-11-16T08:56:17.624Z,9.00
2022-11-16T08:58:46.817Z,9.40
2022-11-16T09:01:14.681Z,8.60
2022-11-16T09:03:41.753Z,9.40
2022-11-16T09:06:09.208Z,9.50
2022-11-16T09:08:36.623Z,9.80
2022-11-16T09:11:04.640Z,9.50
2022-11-16T09:13:31.282Z,9.50
2022-11-16T09:15:58.530Z,9.60
2022-11-16T09:18:25.439Z,9.60
2022-11-16T09:20:52.190Z,9.60
2022-11-16T09:23:24.867Z,9.90
2022-11-16T09:25:52.203Z,9.70
2022-11-16T09:28:18.949Z,9.70
2022-11-16T09:30:45.897Z,9.80
2022-11-16T09:33:13.429Z,9.80
2022-11-16T09:35:40.674Z,9.90
2022-11-16T09:38:07.756Z,10.00
2022-11-16T09:40:35.417Z,11.00
2022-11-16T09:43:02.200Z,10.10
2022-11-16T09:45:38.275Z,10.10
2022-11-16T09:48:07.270Z,9.60
2022-11-16T09:50:49.184Z,10.20
2022-11-16T09:53:15.909Z,10.30
2022-11-16T09:55:46.065Z,10.20
2022-11-16T09:58:13.700Z,10.30
2022-11-16T10:00:41.532Z,10.30
2022-11-16T10:03:12.270Z,10.20
2022-11-16T10:05:40.424Z,10.30
2022-11-16T10:08:15.196Z,10.30
2022-11-16T10:11:01.091Z,10.30
2022-11-16T10:13:34.147Z,10.70
2022-11-16T10:16:10.348Z,10.40
2022-11-16T10:19:15.981Z,10.40
2022-11-16T10:21:52.075Z,10.40
2022-11-16T10:24:21.785Z,10.40
2022-11-16T10:26:50.921Z,10.90
2022-11-16T10:29:33.596Z,10.40
2022-11-16T10:32:00.287Z,10.50
2022-11-16T10:34:28.458Z,11.00
2022-11-16T10:36:56.426Z,10.60
2022-11-16T10:39:24.353Z,10.60
2022-11-16T10:41:51.283Z,10.70
2022-11-16T10:44:20.079Z,10.80
2022-11-16T10:47:07.248Z,11.00
2022-11-16T10:49:42.062Z,11.00
2022-11-16T10:52:09.000Z,11.00
2022-11-16T10:54:38.905Z,11.00
2022-11-16T10:57:16.402Z,10.80
2022-11-16T10:59:49.061Z,10.30
2022-11-16T11:02:18.768Z,11.10
2022-11-16T11:04:50.583Z,11.30
2022-11-16T11:07:26.387Z,11.80
2022-11-16T11:09:53.441Z,11.40
2022-11-16T11:12:39.114Z,11.40
2022-11-16T11:15:12.019Z,11.20
2022-11-16T11:17:38.748Z,11.60
2022-11-16T11:20:14.809Z,11.60
2022-11-16T11:23:00.786Z,11.60
2022-11-16T11:25:34.594Z,11.60
2022-11-16T11:28:07.562Z,11.60
2022-11-16T11:30:34.422Z,11.60
2022-11-16T11:33:01.595Z,11.60
2022-11-16T11:35:30.092Z,11.60
2022-11-16T11:37:57.838Z,11.70
2022-11-16T11:40:27.193Z,11.80
2022-11-16T11:42:54.039Z,12.00
2022-11-16T11:45:21.483Z,11.80
2022-11-16T11:48:07.043Z,11.90
2022-11-16T11:50:39.177Z,12.70
2022-11-16T11:53:18.302Z,12.10
2022-11-16T11:55:45.121Z,12.10
2022-11-16T11:58:14.530Z,12.20
2022-11-16T12:00:55.122Z,12.10
2022-11-16T12:03:21.961Z,12.10
2022-11-16T12:05:53.909Z,12.30
2022-11-16T12:08:20.786Z,11.40
2022-11-16T12:11:06.423Z,12.20
2022-11-16T12:13:53.109Z,12.30
2022-11-16T12:16:32.015Z,12.30
2022-11-16T12:19:02.920Z,12.30
2022-11-16T12:21:32.707Z,12.20
2022-11-16T12:23:59.370Z,12.10
2022-11-16T12:26:38.319Z,12.10
2022-11-16T12:29:28.112Z,12.00
2022-11-16T12:31:54.921Z,12.00
2022-11-16T12:34:33.916Z,11.90
2022-11-16T12:37:02.502Z,11.90
2022-11-16T12:39:37.699Z,11.80
2022-11-16T12:42:23.497Z,11.50
2022-11-16T12:45:05.658Z,12.00
2022-11-16T12:47:35.604Z,11.80
2022-11-16T12:50:18.564Z,11.40
2022-11-16T12:52:51.450Z,11.90
2022-11-16T12:55:38.188Z,11.90
2022-11-16T12:58:23.734Z,11.90
2022-11-16T13:00:53.261Z,12.00
2022-11-16T13:03:24.135Z,12.10
2022-11-16T13:06:23.212Z,12.20
2022-11-16T13:09:03.745Z,12.20
2022-11-16T13:11:31.810Z,12.20
2022-11-16T13:14:01.028Z,12.20
2022-11-16T13:16:29.044Z,12.20
2022-11-16T13:18:56.087Z,12.60
2022-11-16T13:21:29.215Z,11.70
2022-11-16T13:24:00.824Z,12.20
2022-11-16T13:26:33.525Z,12.30
2022-11-16T13:29:03.377Z,12.20
2022-11-16T13:31:53.472Z,12.30
2022-11-16T13:34:30.856Z,12.30
2022-11-16T13:36:59.665Z,12.30
2022-11-16T13:39:45.211Z,11.70
2022-11-16T13:42:12.720Z,12.30
2022-11-16T13:44:39.442Z,12.30
2022-11-16T13:47:06.698Z,12.00
2022-11-16T13:49:33.662Z,11.70
2022-11-16T13:52:22.083Z,12.00
2022-11-16T13:54:53.695Z,12.40
2022-11-16T13:57:27.840Z,12.70
2022-11-16T14:00:00.760Z,12.50
2022-11-16T14:02:31.793Z,12.60
2022-11-16T14:04:59.651Z,12.40
2022-11-16T14:07:29.495Z,11.90
2022-11-16T14:09:56.307Z,12.20
2022-11-16T14:12:38.535Z,12.20
2022-11-16T14:15:19.073Z,12.10
2022-11-16T14:17:49.602Z,12.20
2022-11-16T14:20:22.157Z,12.10
2022-11-16T14:23:04.465Z,12.10
2022-11-16T14:25:47.070Z,11.90
2022-11-16T14:28:13.877Z,12.80
2022-11-16T14:30:49.024Z,11.90
2022-11-16T14:33:23.225Z,11.90
2022-11-16T14:35:53.984Z,11.80
2022-11-16T14:38:29.174Z,11.80
2022-11-16T14:40:59.389Z,11.70
2022-11-16T14:43:30.095Z,12.60
2022-11-16T14:46:06.857Z,11.70
2022-11-16T14:48:33.701Z,11.60
2022-11-16T14:51:08.471Z,11.60
2022-11-16T14:53:35.603Z,12.00
2022-11-16T14:56:06.604Z,11.60
2022-11-16T14:58:33.261Z,11.50
2022-11-16T15:01:00.409Z,11.80
2022-11-16T15:03:27.914Z,12.00
2022-11-16T15:05:58.618Z,11.50
2022-11-16T15:08:27.015Z,11.50
2022-11-16T15:10:53.686Z,11.50
2022-11-16T15:13:21.027Z,10.90
2022-11-16T15:15:47.851Z,11.80
2022-11-16T15:18:18.071Z,11.40
2022-11-16T15:20:49.541Z,11.40
2022-11-16T15:23:16.252Z,11.40
2022-11-16T15:25:52.997Z,11.40
2022-11-16T15:28:28.957Z,11.40
2022-11-16T15:30:55.840Z,11.40
2022-11-16T15:33:23.739Z,11.50
2022-11-16T15:35:50.641Z,11.50
2022-11-16T15:38:27.173Z,11.40
2022-11-16T15:40:54.561Z,11.30
2022-11-16T15:43:22.388Z,11.20
2022-11-16T15:45:49.130Z,11.80
2022-11-16T15:48:17.381Z,11.00
2022-11-16T15:50:54.567Z,11.40
2022-11-16T15:53:33.047Z,11.80
2022-11-16T15:56:00.078Z,11.90
2022-11-16T15:58:26.974Z,11.10
2022-11-16T16:00:53.730Z,11.10
2022-11-16T16:03:32.727Z,11.10
2022-11-16T16:05:59.774Z,11.20
2022-11-16T16:08:38.901Z,11.00
2022-11-16T16:11:14.880Z,11.00
2022-11-16T16:13:42.420Z,11.60
2022-11-16T16:16:31.677Z,11.30
2022-11-16T16:19:01.614Z,11.00
2022-11-16T16:21:47.149Z,10.60
2022-11-16T16:24:35.337Z,10.50
2022-11-16T16:27:02.099Z,10.90
2022-11-16T16:29:28.926Z,10.90
2022-11-16T16:32:01.172Z,11.10
2022-11-16T16:34:37.690Z,11.00
2022-11-16T16:37:09.117Z,10.70
2022-11-16T16:39:50.169Z,11.20
2022-11-16T16:42:19.998Z,10.90
2022-11-16T16:45:00.908Z,11.30
2022-11-16T16:47:30.789Z,9.80
2022-11-16T16:49:59.766Z,11.00
2022-11-16T16:52:55.679Z,11.00
2022-11-16T16:55:26.097Z,10.80
2022-11-16T16:58:07.172Z,11.60
2022-11-16T17:00:41.826Z,9.30
2022-11-16T17:03:08.726Z,11.10
2022-11-16T17:05:35.640Z,12.40
2022-11-16T17:08:08.679Z,11.00
2022-11-16T17:10:37.319Z,11.30
2022-11-16T17:13:04.162Z,10.90
2022-11-16T17:15:55.179Z,11.00
2022-11-16T17:18:34.699Z,11.00
2022-11-16T17:21:06.741Z,10.20
2022-11-16T17:24:04.747Z,10.80
2022-11-16T17:26:51.354Z,11.20
2022-11-16T17:29:23.632Z,10.80
2022-11-16T17:31:53.778Z,11.40
2022-11-16T17:34:23.175Z,11.30
2022-11-16T17:36:49.837Z,9.80
2022-11-16T17:39:16.523Z,11.40
2022-11-16T17:41:43.137Z,10.90
2022-11-16T17:44:10.300Z,11.20
2022-11-16T17:46:36.934Z,10.90
2022-11-16T17:49:03.888Z,10.80
2022-11-16T17:51:30.768Z,9.40
2022-11-16T17:53:57.791Z,10.80
2022-11-16T17:56:27.972Z,10.80
2022-11-16T17:59:00.827Z,10.80
2022-11-16T18:01:28.308Z,10.90
2022-11-16T18:03:55.227Z,10.70
2022-11-16T18:06:22.446Z,10.60
2022-11-16T18:08:49.388Z,10.60
2022-11-16T18:11:17.347Z,10.60
2022-11-16T18:13:44.826Z,10.50
2022-11-16T18:16:12.797Z,10.60
2022-11-16T18:18:40.130Z,10.50
2022-11-16T18:21:14.603Z,10.60
2022-11-16T18:23:48.264Z,11.30
2022-11-16T18:26:23.222Z,10.50
2022-11-16T18:28:50.693Z,10.60
2022-11-16T18:31:18.344Z,10.80
2022-11-16T18:33:45.452Z,11.30
2022-11-16T18:36:12.719Z,11.10
2022-11-16T18:38:39.591Z,10.40
2022-11-16T18:41:12.540Z,10.40
2022-11-16T18:43:42.548Z,11.20
2022-11-16T18:46:09.460Z,10.50
2022-11-16T18:48:36.436Z,10.40
2022-11-16T18:51:03.856Z,10.00
2022-11-16T18:53:31.198Z,11.20
2022-11-16T18:55:58.484Z,10.10
2022-11-16T19:01:13.839Z,10.30
2022-11-16T19:03:40.775Z,10.30
2022-11-16T19:06:08.943Z,10.30
2022-11-16T19:08:36.726Z,10.80
2022-11-16T19:11:16.018Z,10.10
2022-11-16T19:13:43.363Z,10.20
2022-11-16T19:16:10.736Z,10.20
2022-11-16T19:18:37.732Z,10.20
2022-11-16T19:21:12.447Z,9.10
2022-11-16T19:23:39.962Z,10.10
2022-11-16T19:26:07.056Z,10.10
2022-11-16T19:28:37.577Z,10.20
2022-11-16T19:31:08.438Z,10.10
2022-11-16T19:36:25.510Z,9.70
2022-11-16T19:38:54.811Z,10.10
2022-11-16T19:41:24.732Z,10.80
2022-11-16T19:43:52.893Z,10.50
2022-11-16T19:46:24.781Z,10.60
2022-11-16T19:48:51.817Z,10.10
2022-11-16T19:51:27.392Z,10.20
2022-11-16T19:53:54.413Z,10.40
2022-11-16T19:56:23.299Z,11.50
2022-11-16T19:58:56.586Z,9.60
2022-11-16T20:01:58.471Z,11.00
2022-11-16T20:04:39.942Z,10.40
2022-11-16T20:08:01.089Z,8.20
2022-11-16T20:10:29.280Z,11.10
2022-11-16T20:12:57.148Z,9.30
2022-11-16T20:18:06.552Z,10.50
2022-11-16T20:20:33.388Z,10.10
2022-11-16T20:23:00.646Z,9.90
2022-11-16T20:25:29.170Z,10.10
2022-11-16T20:27:56.008Z,9.90
2022-11-16T20:30:23.227Z,9.90
2022-11-16T20:32:49.981Z,9.90
2022-11-16T20:35:19.184Z,9.90
2022-11-16T20:37:49.211Z,9.90
2022-11-16T20:40:16.065Z,10.10
2022-11-16T20:42:42.766Z,10.80
2022-11-16T20:45:10.012Z,10.60
2022-11-16T20:47:36.983Z,10.00
2022-11-16T20:50:06.701Z,10.00
2022-11-16T20:52:33.704Z,10.00
2022-11-16T20:55:02.108Z,10.40
2022-11-16T20:57:28.850Z,10.10
2022-11-16T20:59:55.786Z,8.90
2022-11-16T21:02:22.876Z,10.40
2022-11-16T21:04:49.869Z,9.30
2022-11-16T21:07:17.002Z,10.40
2022-11-16T21:10:02.433Z,10.40
2022-11-16T21:12:47.983Z,10.20
2022-11-16T21:15:14.849Z,10.40
2022-11-16T21:17:44.449Z,10.30
2022-11-16T21:20:27.501Z,11.30
2022-11-16T21:22:57.179Z,10.30
2022-11-16T21:25:49.449Z,9.70
2022-11-16T21:28:26.930Z,10.20
2022-11-16T21:30:56.836Z,8.20
2022-11-16T21:33:24.090Z,11.00
2022-11-16T21:35:52.963Z,11.70
2022-11-16T21:38:20.615Z,10.50
2022-11-16T21:40:47.456Z,9.70
2022-11-16T21:43:17.336Z,11.00
2022-11-16T21:45:44.335Z,9.00
2022-11-16T21:48:11.305Z,10.50
2022-11-16T21:50:38.218Z,10.70
2022-11-16T21:53:05.568Z,10.20
2022-11-16T21:55:32.339Z,10.50
2022-11-16T21:57:59.324Z,10.70
2022-11-16T22:00:26.313Z,9.10
2022-11-16T22:02:53.303Z,11.00
2022-11-16T22:05:38.994Z,11.00
2022-11-16T22:08:09.081Z,10.60
2022-11-16T22:10:35.928Z,10.70
2022-11-16T22:13:03.047Z,10.60
2022-11-16T22:15:29.891Z,11.20
2022-11-16T22:17:56.733Z,11.30
2022-11-16T22:20:23.546Z,10.90
2022-11-16T22:22:50.429Z,10.80
2022-11-16T22:25:18.648Z,10.40
2022-11-16T22:28:13.777Z,10.90
2022-11-16T22:30:33.957Z,11.70
2022-11-16T22:33:00.743Z,10.90
2022-11-16T22:35:27.532Z,10.90
2022-11-16T22:37:54.316Z,10.90
2022-11-16T22:40:21.104Z,11.40
2022-11-16T22:42:47.915Z,11.00
2022-11-16T22:45:17.213Z,11.00
2022-11-16T22:47:44.059Z,11.00
2022-11-16T22:50:10.923Z,11.10
2022-11-16T22:52:37.772Z,11.10
2022-11-16T22:55:05.129Z,11.20
2022-11-16T22:57:31.942Z,11.20
2022-11-16T22:59:58.670Z,11.40
2022-11-16T23:02:25.457Z,12.60
2022-11-16T23:04:52.288Z,11.30
2022-11-16T23:07:19.148Z,11.40
2022-11-16T23:09:45.966Z,11.40
2022-11-16T23:12:31.423Z,11.30
2022-11-16T23:15:16.958Z,11.40
2022-11-16T23:17:45.130Z,11.80
2022-11-16T23:20:30.451Z,11.40
2022-11-16T23:23:29.522Z,11.50
2022-11-16T23:26:15.128Z,11.20
2022-11-16T23:28:41.952Z,12.00
2022-11-16T23:31:09.089Z,11.40
2022-11-16T23:33:45.127Z,11.50
2022-11-16T23:36:12.463Z,11.60
2022-11-16T23:38:39.688Z,11.80
2022-11-16T23:41:25.063Z,11.60
2022-11-16T23:43:57.851Z,12.20
2022-11-16T23:46:31.588Z,11.90
2022-11-16T23:48:58.568Z,11.90
2022-11-16T23:51:28.766Z,12.20
2022-11-16T23:53:58.889Z,12.20
2022-11-16T23:56:29.279Z,12.20
2022-11-16T23:58:59.421Z,10.60
